createdAt,value
2023-05-12T00:01:20.416Z,75394.34
2023-05-12T00:11:25.078Z,75410.53
2023-05-12T00:21:32.774Z,75420.66
2023-05-12T00:31:35.346Z,75426.72
2023-05-12T00:41:43.257Z,75432.78
2023-05-12T00:51:48.268Z,75455.06
2023-05-12T01:01:50.672Z,75467.19
2023-05-12T01:11:55.753Z,75483.38
2023-05-12T01:22:00.989Z,75491.47
2023-05-12T01:32:03.457Z,75511.72
2023-05-12T01:42:06.516Z,75519.81
2023-05-12T01:52:11.137Z,75546.13
2023-05-12T02:02:13.338Z,75558.25
2023-05-12T02:12:17.980Z,75570.41
2023-05-12T02:22:22.530Z,75584.56
2023-05-12T02:32:28.401Z,75598.72
2023-05-12T02:42:35.801Z,75614.94
2023-05-12T02:52:40.457Z,75621.00
2023-05-12T03:02:46.164Z,75606.84
2023-05-12T03:12:50.533Z,75576.47
2023-05-12T03:22:52.670Z,75523.84
2023-05-12T03:32:59.398Z,75485.41
2023-05-12T03:43:01.840Z,75438.88
2023-05-12T03:53:12.120Z,75382.19
2023-05-12T04:03:19.674Z,75337.69
2023-05-12T04:13:24.211Z,75321.50
2023-05-12T04:23:29.364Z,75262.81
2023-05-12T04:33:33.969Z,75183.88
2023-05-12T04:53:46.126Z,75100.94
2023-05-12T05:03:50.926Z,75030.09
2023-05-12T05:13:57.861Z,75013.91
2023-05-12T05:24:02.813Z,74969.41
2023-05-12T05:34:05.141Z,74896.56
2023-05-12T05:44:09.704Z,74868.22
2023-05-12T05:54:17.147Z,74807.53
2023-05-12T06:04:20.795Z,74807.53
2023-05-12T06:14:23.144Z,74718.50
2023-05-12T06:24:25.365Z,74726.59
2023-05-12T06:34:29.926Z,74714.47
2023-05-12T06:44:35.772Z,74629.47
2023-05-12T06:54:42.566Z,74601.16
2023-05-12T07:04:44.732Z,74580.94
2023-05-12T07:14:46.805Z,74627.47
2023-05-12T07:24:51.586Z,74639.59
2023-05-12T07:34:56.063Z,74593.06
2023-05-12T07:45:01.001Z,74667.91
2023-05-12T07:55:03.191Z,74605.19
2023-05-12T08:05:06.458Z,74617.34
2023-05-12T08:15:11.666Z,74678.03
2023-05-12T08:25:17.290Z,74653.75
2023-05-12T08:35:24.359Z,74568.78
2023-05-12T08:45:27.301Z,74617.34
2023-05-12T08:55:34.617Z,74669.94
2023-05-12T09:05:37.287Z,74633.53
2023-05-12T09:15:43.739Z,74617.34
2023-05-12T09:25:49.727Z,74609.25
2023-05-12T09:35:53.364Z,74609.25
2023-05-12T09:45:57.857Z,74558.66
2023-05-12T09:56:02.373Z,74568.78
2023-05-12T10:06:08.969Z,74621.38
2023-05-12T10:16:11.336Z,74611.28
2023-05-12T10:26:19.765Z,74665.91
2023-05-12T10:36:24.927Z,74576.88
2023-05-12T10:46:30.861Z,74576.88
2023-05-12T10:56:40.173Z,74564.75
2023-05-12T11:07:01.485Z,74558.66
2023-05-12T11:17:06.553Z,74534.38
2023-05-12T11:27:19.420Z,74546.53
2023-05-12T11:37:21.779Z,74548.56
2023-05-12T11:47:26.443Z,74589.00
2023-05-12T11:57:32.793Z,74500.00
2023-05-12T12:07:40.428Z,74508.09
2023-05-12T12:17:47.665Z,74502.03
2023-05-12T12:27:53.266Z,74514.16
2023-05-12T12:37:57.512Z,74512.13
2023-05-12T12:48:09.444Z,74469.66
2023-05-12T12:58:14.368Z,74447.38
2023-05-12T13:08:17.848Z,74429.19
2023-05-12T13:18:20.923Z,74433.22
2023-05-12T13:28:25.301Z,74435.25
2023-05-12T13:38:27.773Z,74394.78
2023-05-12T13:48:29.949Z,74431.22
2023-05-12T13:58:35.173Z,74410.97
2023-05-12T14:08:40.407Z,74398.84
2023-05-12T14:18:50.403Z,74415.03
2023-05-12T14:28:55.029Z,74425.13
2023-05-12T14:39:00.011Z,74398.84
2023-05-12T14:49:10.791Z,74410.97
2023-05-12T14:59:13.432Z,74410.97
2023-05-12T15:09:18.320Z,74443.34
2023-05-12T15:19:22.737Z,74406.94
2023-05-12T15:29:24.949Z,74394.78
2023-05-12T15:39:27.051Z,74415.03
2023-05-12T15:49:31.611Z,74439.31
2023-05-12T15:59:34.049Z,74427.16
2023-05-12T16:09:40.688Z,74408.94
2023-05-12T16:19:43.298Z,74431.22
2023-05-12T16:29:48.816Z,74447.38
2023-05-12T16:39:51.083Z,74463.56
2023-05-12T16:49:54.291Z,74457.50
2023-05-12T16:59:59.692Z,74467.63
2023-05-12T17:10:02.132Z,74467.63
2023-05-12T17:20:15.253Z,74479.75
2023-05-12T17:30:20.345Z,74491.91
2023-05-12T17:40:23.189Z,74512.13
2023-05-12T17:50:27.923Z,74526.28
2023-05-12T18:00:32.318Z,74550.56
2023-05-12T18:10:36.871Z,74576.88
2023-05-12T18:20:39.182Z,74607.22
2023-05-12T18:30:48.971Z,74629.47
2023-05-12T18:40:54.299Z,74659.81
2023-05-12T18:50:57.009Z,74678.03
2023-05-12T19:01:00.755Z,74692.19
2023-05-12T19:11:05.446Z,74706.38
2023-05-12T19:21:13.320Z,74730.66
2023-05-12T19:31:15.636Z,74746.84
2023-05-12T19:41:22.177Z,74765.03
2023-05-12T19:51:24.369Z,74779.19
2023-05-12T20:01:28.791Z,74797.41
2023-05-12T20:11:31.032Z,74813.59
2023-05-12T20:21:35.869Z,74835.84
2023-05-12T20:31:40.383Z,74843.94
2023-05-12T20:41:43.482Z,74852.03
2023-05-12T20:51:47.931Z,74868.22
2023-05-12T21:01:52.706Z,74882.41
2023-05-12T21:11:54.773Z,74888.47
2023-05-12T21:21:59.265Z,74896.56
2023-05-12T21:32:04.607Z,74898.59
2023-05-12T21:42:06.978Z,74900.59
2023-05-12T21:52:13.396Z,74904.66
2023-05-12T22:02:19.961Z,74941.06
2023-05-12T22:12:27.267Z,74965.34
2023-05-12T22:22:29.289Z,75030.09
2023-05-12T22:32:33.734Z,75076.66
2023-05-12T22:42:36.459Z,75147.47
2023-05-12T22:52:41.069Z,75167.69
2023-05-12T23:02:47.850Z,75185.91
2023-05-12T23:12:54.391Z,75189.97
2023-05-12T23:22:58.901Z,75208.16
2023-05-12T23:33:03.424Z,75216.25
2023-05-12T23:43:08.273Z,75222.34
2023-05-12T23:53:12.683Z,75175.78
